sensor_id;sensor_type;location;lat;lon;timestamp;temperature;humidity
1461;DHT22;724;49.910;12.530;2023-07-31T00:00:10;11.50;1.00
1461;DHT22;724;49.910;12.530;2023-07-31T00:02:38;11.50;1.00
1461;DHT22;724;49.910;12.530;2023-07-31T00:05:05;11.50;1.00
1461;DHT22;724;49.910;12.530;2023-07-31T00:07:32;11.50;1.00
1461;DHT22;724;49.910;12.530;2023-07-31T00:10:00;11.50;1.00
1461;DHT22;724;49.910;12.530;2023-07-31T00:12:28;11.40;1.00
1461;DHT22;724;49.910;12.530;2023-07-31T00:14:54;11.40;1.00
1461;DHT22;724;49.910;12.530;2023-07-31T00:17:21;11.30;1.00
1461;DHT22;724;49.910;12.530;2023-07-31T00:19:48;11.20;1.00
1461;DHT22;724;49.910;12.530;2023-07-31T00:22:16;11.20;1.00
1461;DHT22;724;49.910;12.530;2023-07-31T00:24:43;11.20;1.00
1461;DHT22;724;49.910;12.530;2023-07-31T00:27:11;11.20;1.00
1461;DHT22;724;49.910;12.530;2023-07-31T00:29:37;11.10;1.00
1461;DHT22;724;49.910;12.530;2023-07-31T00:32:05;11.10;1.00
1461;DHT22;724;49.910;12.530;2023-07-31T00:34:32;11.00;1.00
1461;DHT22;724;49.910;12.530;2023-07-31T00:36:59;11.00;1.00
1461;DHT22;724;49.910;12.530;2023-07-31T00:39:26;11.00;1.00
1461;DHT22;724;49.910;12.530;2023-07-31T00:41:52;10.90;75.80
1461;DHT22;724;49.910;12.530;2023-07-31T00:44:20;10.90;99.90
1461;DHT22;724;49.910;12.530;2023-07-31T00:46:47;10.90;99.90
1461;DHT22;724;49.910;12.530;2023-07-31T00:49:14;10.80;99.90
1461;DHT22;724;49.910;12.530;2023-07-31T00:51:41;11.00;99.90
1461;DHT22;724;49.910;12.530;2023-07-31T00:54:08;11.00;99.90
1461;DHT22;724;49.910;12.530;2023-07-31T00:56:35;11.00;99.90
1461;DHT22;724;49.910;12.530;2023-07-31T00:59:03;11.00;99.90
1461;DHT22;724;49.910;12.530;2023-07-31T01:01:31;11.00;99.90
1461;DHT22;724;49.910;12.530;2023-07-31T01:03:58;11.00;99.90
1461;DHT22;724;49.910;12.530;2023-07-31T01:06:33;11.00;99.90
1461;DHT22;724;49.910;12.530;2023-07-31T01:09:03;11.10;99.90
1461;DHT22;724;49.910;12.530;2023-07-31T01:11:33;11.10;99.90
1461;DHT22;724;49.910;12.530;2023-07-31T01:14:01;11.10;99.90
1461;DHT22;724;49.910;12.530;2023-07-31T01:16:28;11.00;99.90
1461;DHT22;724;49.910;12.530;2023-07-31T01:18:56;10.90;99.90
1461;DHT22;724;49.910;12.530;2023-07-31T01:21:48;10.90;99.90
1461;DHT22;724;49.910;12.530;2023-07-31T01:24:25;10.80;99.90
1461;DHT22;724;49.910;12.530;2023-07-31T01:27:00;10.70;1.00
1461;DHT22;724;49.910;12.530;2023-07-31T01:29:37;10.70;1.00
1461;DHT22;724;49.910;12.530;2023-07-31T01:32:06;10.60;1.00
1461;DHT22;724;49.910;12.530;2023-07-31T01:34:35;10.70;1.00
1461;DHT22;724;49.910;12.530;2023-07-31T01:37:03;10.80;1.00
1461;DHT22;724;49.910;12.530;2023-07-31T01:39:30;10.90;1.00
1461;DHT22;724;49.910;12.530;2023-07-31T01:41:58;11.00;1.00
1461;DHT22;724;49.910;12.530;2023-07-31T01:44:25;11.10;1.00
1461;DHT22;724;49.910;12.530;2023-07-31T01:46:52;11.20;1.00
1461;DHT22;724;49.910;12.530;2023-07-31T01:49:19;11.20;99.90
1461;DHT22;724;49.910;12.530;2023-07-31T01:51:45;11.30;99.90
1461;DHT22;724;49.910;12.530;2023-07-31T01:54:12;11.30;99.90
1461;DHT22;724;49.910;12.530;2023-07-31T01:56:39;11.20;99.90
1461;DHT22;724;49.910;12.530;2023-07-31T01:59:07;11.10;99.90
1461;DHT22;724;49.910;12.530;2023-07-31T02:01:34;11.10;1.00
1461;DHT22;724;49.910;12.530;2023-07-31T02:04:00;11.10;1.00
1461;DHT22;724;49.910;12.530;2023-07-31T02:06:28;11.20;1.00
1461;DHT22;724;49.910;12.530;2023-07-31T02:08:55;11.30;1.00
1461;DHT22;724;49.910;12.530;2023-07-31T02:11:22;11.30;1.00
1461;DHT22;724;49.910;12.530;2023-07-31T02:13:48;11.40;99.90
1461;DHT22;724;49.910;12.530;2023-07-31T02:16:17;11.40;99.90
1461;DHT22;724;49.910;12.530;2023-07-31T02:18:43;11.50;99.90
1461;DHT22;724;49.910;12.530;2023-07-31T02:21:10;11.60;99.90
1461;DHT22;724;49.910;12.530;2023-07-31T02:23:37;11.70;99.90
1461;DHT22;724;49.910;12.530;2023-07-31T02:26:04;11.90;90.60
1461;DHT22;724;49.910;12.530;2023-07-31T02:28:30;11.90;1.00
1461;DHT22;724;49.910;12.530;2023-07-31T02:30:57;11.90;1.00
1461;DHT22;724;49.910;12.530;2023-07-31T02:33:25;11.90;1.00
1461;DHT22;724;49.910;12.530;2023-07-31T02:35:52;11.80;62.40
1461;DHT22;724;49.910;12.530;2023-07-31T02:38:19;11.80;92.40
1461;DHT22;724;49.910;12.530;2023-07-31T02:40:45;11.90;58.60
1461;DHT22;724;49.910;12.530;2023-07-31T02:43:13;11.90;1.00
1461;DHT22;724;49.910;12.530;2023-07-31T02:45:40;12.00;1.00
1461;DHT22;724;49.910;12.530;2023-07-31T02:48:07;12.10;1.00
1461;DHT22;724;49.910;12.530;2023-07-31T02:50:35;12.10;1.00
1461;DHT22;724;49.910;12.530;2023-07-31T02:53:01;12.20;1.00
1461;DHT22;724;49.910;12.530;2023-07-31T02:55:28;12.20;1.00
1461;DHT22;724;49.910;12.530;2023-07-31T02:57:55;12.20;1.00
1461;DHT22;724;49.910;12.530;2023-07-31T03:00:23;12.30;1.00
1461;DHT22;724;49.910;12.530;2023-07-31T03:02:50;12.30;1.00
1461;DHT22;724;49.910;12.530;2023-07-31T03:05:17;12.30;1.00
1461;DHT22;724;49.910;12.530;2023-07-31T03:07:45;12.30;1.00
1461;DHT22;724;49.910;12.530;2023-07-31T03:10:11;12.40;1.00
1461;DHT22;724;49.910;12.530;2023-07-31T03:12:39;12.40;1.00
1461;DHT22;724;49.910;12.530;2023-07-31T03:15:07;12.50;1.00
1461;DHT22;724;49.910;12.530;2023-07-31T03:17:34;12.50;1.00
1461;DHT22;724;49.910;12.530;2023-07-31T03:20:01;12.50;1.00
1461;DHT22;724;49.910;12.530;2023-07-31T03:22:27;12.50;1.00
1461;DHT22;724;49.910;12.530;2023-07-31T03:24:56;12.60;1.00
1461;DHT22;724;49.910;12.530;2023-07-31T03:27:22;12.50;1.00
1461;DHT22;724;49.910;12.530;2023-07-31T03:29:49;12.50;1.00
1461;DHT22;724;49.910;12.530;2023-07-31T03:32:17;12.50;1.00
1461;DHT22;724;49.910;12.530;2023-07-31T03:34:44;12.50;1.00
1461;DHT22;724;49.910;12.530;2023-07-31T03:37:11;12.50;1.00
1461;DHT22;724;49.910;12.530;2023-07-31T03:39:38;12.50;1.00
1461;DHT22;724;49.910;12.530;2023-07-31T03:42:06;12.40;1.00
1461;DHT22;724;49.910;12.530;2023-07-31T03:44:33;12.40;1.00
1461;DHT22;724;49.910;12.530;2023-07-31T03:47:00;12.50;1.00
1461;DHT22;724;49.910;12.530;2023-07-31T03:49:27;12.40;1.00
1461;DHT22;724;49.910;12.530;2023-07-31T03:51:54;12.40;1.00
1461;DHT22;724;49.910;12.530;2023-07-31T03:54:21;12.50;1.00
1461;DHT22;724;49.910;12.530;2023-07-31T03:56:47;12.40;1.00
1461;DHT22;724;49.910;12.530;2023-07-31T03:59:15;12.40;1.00
1461;DHT22;724;49.910;12.530;2023-07-31T04:01:42;12.50;1.00
1461;DHT22;724;49.910;12.530;2023-07-31T04:04:09;12.50;1.00
1461;DHT22;724;49.910;12.530;2023-07-31T04:06:36;12.50;1.00
1461;DHT22;724;49.910;12.530;2023-07-31T04:09:03;12.50;1.00
1461;DHT22;724;49.910;12.530;2023-07-31T04:11:30;12.50;1.00
1461;DHT22;724;49.910;12.530;2023-07-31T04:13:56;12.60;1.00
1461;DHT22;724;49.910;12.530;2023-07-31T04:16:24;12.60;1.00
1461;DHT22;724;49.910;12.530;2023-07-31T04:18:51;12.60;1.00
1461;DHT22;724;49.910;12.530;2023-07-31T04:21:18;12.60;1.00
1461;DHT22;724;49.910;12.530;2023-07-31T04:23:45;12.60;1.00
1461;DHT22;724;49.910;12.530;2023-07-31T04:26:11;12.60;1.00
1461;DHT22;724;49.910;12.530;2023-07-31T04:28:38;12.60;1.00
1461;DHT22;724;49.910;12.530;2023-07-31T04:31:05;12.70;1.00
1461;DHT22;724;49.910;12.530;2023-07-31T04:33:33;12.70;1.00
1461;DHT22;724;49.910;12.530;2023-07-31T04:36:00;12.80;1.00
1461;DHT22;724;49.910;12.530;2023-07-31T04:38:26;12.80;1.00
1461;DHT22;724;49.910;12.530;2023-07-31T04:40:53;12.90;1.00
1461;DHT22;724;49.910;12.530;2023-07-31T04:43:20;12.90;1.00
1461;DHT22;724;49.910;12.530;2023-07-31T04:45:47;12.90;1.00
1461;DHT22;724;49.910;12.530;2023-07-31T04:48:15;12.80;1.00
1461;DHT22;724;49.910;12.530;2023-07-31T04:50:43;12.90;1.00
1461;DHT22;724;49.910;12.530;2023-07-31T04:53:10;12.90;1.00
1461;DHT22;724;49.910;12.530;2023-07-31T04:55:37;12.90;1.00
1461;DHT22;724;49.910;12.530;2023-07-31T04:58:04;13.00;1.00
1461;DHT22;724;49.910;12.530;2023-07-31T05:00:30;13.10;1.00
1461;DHT22;724;49.910;12.530;2023-07-31T05:02:57;13.30;1.00
1461;DHT22;724;49.910;12.530;2023-07-31T05:05:24;13.30;99.90
1461;DHT22;724;49.910;12.530;2023-07-31T05:07:52;13.40;99.90
1461;DHT22;724;49.910;12.530;2023-07-31T05:10:19;13.30;99.90
1461;DHT22;724;49.910;12.530;2023-07-31T05:12:45;13.40;99.90
1461;DHT22;724;49.910;12.530;2023-07-31T05:15:12;13.40;99.90
1461;DHT22;724;49.910;12.530;2023-07-31T05:17:39;13.40;99.90
1461;DHT22;724;49.910;12.530;2023-07-31T05:20:07;13.50;99.90
1461;DHT22;724;49.910;12.530;2023-07-31T05:22:34;13.50;99.90
1461;DHT22;724;49.910;12.530;2023-07-31T05:25:02;13.50;99.90
1461;DHT22;724;49.910;12.530;2023-07-31T05:27:30;13.40;99.90
1461;DHT22;724;49.910;12.530;2023-07-31T05:29:57;13.50;99.90
1461;DHT22;724;49.910;12.530;2023-07-31T05:32:23;13.60;99.90
1461;DHT22;724;49.910;12.530;2023-07-31T05:34:51;13.70;99.90
1461;DHT22;724;49.910;12.530;2023-07-31T05:37:17;13.90;99.90
1461;DHT22;724;49.910;12.530;2023-07-31T05:39:44;13.90;99.90
1461;DHT22;724;49.910;12.530;2023-07-31T05:42:12;13.90;99.90
1461;DHT22;724;49.910;12.530;2023-07-31T05:44:39;14.00;99.90
1461;DHT22;724;49.910;12.530;2023-07-31T05:47:06;14.10;99.90
1461;DHT22;724;49.910;12.530;2023-07-31T05:49:33;14.10;99.90
1461;DHT22;724;49.910;12.530;2023-07-31T05:51:59;14.10;99.90
1461;DHT22;724;49.910;12.530;2023-07-31T05:54:26;14.20;99.90
1461;DHT22;724;49.910;12.530;2023-07-31T05:56:53;14.20;99.90
1461;DHT22;724;49.910;12.530;2023-07-31T05:59:21;14.30;99.90
1461;DHT22;724;49.910;12.530;2023-07-31T06:01:48;14.30;99.90
1461;DHT22;724;49.910;12.530;2023-07-31T06:04:14;14.20;99.90
1461;DHT22;724;49.910;12.530;2023-07-31T06:06:41;14.20;99.90
1461;DHT22;724;49.910;12.530;2023-07-31T06:09:08;14.30;99.90
1461;DHT22;724;49.910;12.530;2023-07-31T06:11:35;14.10;99.90
1461;DHT22;724;49.910;12.530;2023-07-31T06:14:01;14.10;99.90
1461;DHT22;724;49.910;12.530;2023-07-31T06:16:30;14.10;99.90
1461;DHT22;724;49.910;12.530;2023-07-31T06:18:56;14.10;89.10
1461;DHT22;724;49.910;12.530;2023-07-31T06:21:24;14.00;94.00
1461;DHT22;724;49.910;12.530;2023-07-31T06:23:50;14.20;99.90
1461;DHT22;724;49.910;12.530;2023-07-31T06:26:17;14.30;99.90
1461;DHT22;724;49.910;12.530;2023-07-31T06:28:44;14.30;85.00
1461;DHT22;724;49.910;12.530;2023-07-31T06:31:11;14.50;61.80
1461;DHT22;724;49.910;12.530;2023-07-31T06:33:39;14.60;36.80
1461;DHT22;724;49.910;12.530;2023-07-31T06:36:06;14.50;44.00
1461;DHT22;724;49.910;12.530;2023-07-31T06:38:33;14.40;90.10
1461;DHT22;724;49.910;12.530;2023-07-31T06:40:59;14.30;50.80
1461;DHT22;724;49.910;12.530;2023-07-31T06:43:26;14.30;93.10
1461;DHT22;724;49.910;12.530;2023-07-31T06:45:53;14.20;79.80
1461;DHT22;724;49.910;12.530;2023-07-31T06:48:20;14.30;95.80
1461;DHT22;724;49.910;12.530;2023-07-31T06:50:48;14.50;99.90
1461;DHT22;724;49.910;12.530;2023-07-31T06:53:14;14.60;98.60
1461;DHT22;724;49.910;12.530;2023-07-31T06:55:41;14.80;34.50
1461;DHT22;724;49.910;12.530;2023-07-31T06:58:08;14.70;40.50
1461;DHT22;724;49.910;12.530;2023-07-31T07:00:35;15.00;44.30
1461;DHT22;724;49.910;12.530;2023-07-31T07:03:01;15.00;1.00
1461;DHT22;724;49.910;12.530;2023-07-31T07:05:28;14.80;1.00
1461;DHT22;724;49.910;12.530;2023-07-31T07:08:01;14.70;1.00
1461;DHT22;724;49.910;12.530;2023-07-31T07:10:28;14.90;14.90
1461;DHT22;724;49.910;12.530;2023-07-31T07:12:55;15.10;1.00
1461;DHT22;724;49.910;12.530;2023-07-31T07:15:21;15.00;1.00
1461;DHT22;724;49.910;12.530;2023-07-31T07:17:51;15.10;1.00
1461;DHT22;724;49.910;12.530;2023-07-31T07:20:17;15.30;1.00
1461;DHT22;724;49.910;12.530;2023-07-31T07:22:45;15.30;1.00
1461;DHT22;724;49.910;12.530;2023-07-31T07:25:13;15.30;1.00
1461;DHT22;724;49.910;12.530;2023-07-31T07:27:40;15.30;1.00
1461;DHT22;724;49.910;12.530;2023-07-31T07:30:07;15.30;1.00
1461;DHT22;724;49.910;12.530;2023-07-31T07:32:34;15.40;1.00
1461;DHT22;724;49.910;12.530;2023-07-31T07:35:01;15.30;1.00
1461;DHT22;724;49.910;12.530;2023-07-31T07:37:27;15.30;1.00
1461;DHT22;724;49.910;12.530;2023-07-31T07:39:54;15.40;1.00
1461;DHT22;724;49.910;12.530;2023-07-31T07:42:22;15.70;1.00
1461;DHT22;724;49.910;12.530;2023-07-31T07:44:49;16.60;1.00
1461;DHT22;724;49.910;12.530;2023-07-31T07:47:16;16.90;1.00
1461;DHT22;724;49.910;12.530;2023-07-31T07:49:43;16.70;1.00
1461;DHT22;724;49.910;12.530;2023-07-31T07:52:10;16.80;1.00
1461;DHT22;724;49.910;12.530;2023-07-31T07:54:36;16.70;1.00
1461;DHT22;724;49.910;12.530;2023-07-31T07:57:04;16.70;1.00
1461;DHT22;724;49.910;12.530;2023-07-31T07:59:32;17.00;1.00
1461;DHT22;724;49.910;12.530;2023-07-31T08:01:59;16.90;1.00
1461;DHT22;724;49.910;12.530;2023-07-31T08:04:25;16.90;1.00
1461;DHT22;724;49.910;12.530;2023-07-31T08:06:52;16.50;1.00
1461;DHT22;724;49.910;12.530;2023-07-31T08:09:19;16.20;1.00
1461;DHT22;724;49.910;12.530;2023-07-31T08:11:46;16.20;1.00
1461;DHT22;724;49.910;12.530;2023-07-31T08:14:13;16.10;1.00
1461;DHT22;724;49.910;12.530;2023-07-31T08:16:42;16.20;1.00
1461;DHT22;724;49.910;12.530;2023-07-31T08:19:09;16.30;1.00
1461;DHT22;724;49.910;12.530;2023-07-31T08:21:36;16.20;1.00
1461;DHT22;724;49.910;12.530;2023-07-31T08:24:03;16.10;1.00
1461;DHT22;724;49.910;12.530;2023-07-31T08:26:29;16.00;1.00
1461;DHT22;724;49.910;12.530;2023-07-31T08:28:56;16.00;1.00
1461;DHT22;724;49.910;12.530;2023-07-31T08:31:24;16.00;1.00
1461;DHT22;724;49.910;12.530;2023-07-31T08:33:53;15.90;1.00
1461;DHT22;724;49.910;12.530;2023-07-31T08:36:20;15.90;1.00
1461;DHT22;724;49.910;12.530;2023-07-31T08:38:47;16.00;1.00
1461;DHT22;724;49.910;12.530;2023-07-31T08:41:15;16.20;1.00
1461;DHT22;724;49.910;12.530;2023-07-31T08:43:44;16.40;1.00
1461;DHT22;724;49.910;12.530;2023-07-31T08:46:11;16.60;1.00
1461;DHT22;724;49.910;12.530;2023-07-31T08:48:41;17.00;1.00
1461;DHT22;724;49.910;12.530;2023-07-31T08:51:13;17.30;1.00
1461;DHT22;724;49.910;12.530;2023-07-31T08:53:40;17.70;1.00
1461;DHT22;724;49.910;12.530;2023-07-31T08:56:07;17.80;1.00
1461;DHT22;724;49.910;12.530;2023-07-31T08:58:34;17.30;1.00
1461;DHT22;724;49.910;12.530;2023-07-31T09:01:04;17.30;1.00
1461;DHT22;724;49.910;12.530;2023-07-31T09:03:33;17.20;1.00
1461;DHT22;724;49.910;12.530;2023-07-31T09:06:01;17.20;1.00
1461;DHT22;724;49.910;12.530;2023-07-31T09:08:31;17.20;1.00
1461;DHT22;724;49.910;12.530;2023-07-31T09:11:00;17.20;1.00
1461;DHT22;724;49.910;12.530;2023-07-31T09:13:29;17.70;1.00
1461;DHT22;724;49.910;12.530;2023-07-31T09:15:57;18.20;1.00
1461;DHT22;724;49.910;12.530;2023-07-31T09:18:24;18.40;1.00
1461;DHT22;724;49.910;12.530;2023-07-31T09:21:01;18.30;1.00
1461;DHT22;724;49.910;12.530;2023-07-31T09:23:44;18.40;1.00
1461;DHT22;724;49.910;12.530;2023-07-31T09:26:29;18.20;1.00
1461;DHT22;724;49.910;12.530;2023-07-31T09:28:56;18.50;1.00
1461;DHT22;724;49.910;12.530;2023-07-31T09:31:38;18.20;1.00
1461;DHT22;724;49.910;12.530;2023-07-31T09:34:05;18.30;1.00
1461;DHT22;724;49.910;12.530;2023-07-31T09:36:32;18.40;1.00
1461;DHT22;724;49.910;12.530;2023-07-31T09:39:03;18.00;1.00
1461;DHT22;724;49.910;12.530;2023-07-31T09:41:30;17.70;1.00
1461;DHT22;724;49.910;12.530;2023-07-31T09:43:57;17.90;1.00
1461;DHT22;724;49.910;12.530;2023-07-31T09:46:27;17.90;1.00
1461;DHT22;724;49.910;12.530;2023-07-31T09:49:04;17.70;1.00
1461;DHT22;724;49.910;12.530;2023-07-31T09:51:31;17.80;1.00
1461;DHT22;724;49.910;12.530;2023-07-31T09:54:09;17.60;1.00
1461;DHT22;724;49.910;12.530;2023-07-31T09:56:38;17.90;1.00
1461;DHT22;724;49.910;12.530;2023-07-31T09:59:08;18.20;1.00
1461;DHT22;724;49.910;12.530;2023-07-31T10:01:37;18.40;1.00
1461;DHT22;724;49.910;12.530;2023-07-31T10:04:05;19.00;1.00
1461;DHT22;724;49.910;12.530;2023-07-31T10:06:35;19.30;1.00
1461;DHT22;724;49.910;12.530;2023-07-31T10:09:03;19.30;1.00
1461;DHT22;724;49.910;12.530;2023-07-31T10:11:35;19.40;1.00
1461;DHT22;724;49.910;12.530;2023-07-31T10:14:05;19.70;1.00
1461;DHT22;724;49.910;12.530;2023-07-31T10:16:35;20.20;1.00
1461;DHT22;724;49.910;12.530;2023-07-31T10:19:02;20.40;99.90
1461;DHT22;724;49.910;12.530;2023-07-31T10:21:30;20.20;99.90
1461;DHT22;724;49.910;12.530;2023-07-31T10:24:01;20.60;99.90
1461;DHT22;724;49.910;12.530;2023-07-31T10:26:29;21.40;99.90
1461;DHT22;724;49.910;12.530;2023-07-31T10:28:58;20.40;99.90
1461;DHT22;724;49.910;12.530;2023-07-31T10:31:27;19.40;99.90
1461;DHT22;724;49.910;12.530;2023-07-31T10:33:54;19.10;99.90
1461;DHT22;724;49.910;12.530;2023-07-31T10:36:22;19.20;99.90
1461;DHT22;724;49.910;12.530;2023-07-31T10:38:49;19.40;99.90
1461;DHT22;724;49.910;12.530;2023-07-31T10:41:17;20.10;99.90
1461;DHT22;724;49.910;12.530;2023-07-31T10:43:46;20.50;99.90
1461;DHT22;724;49.910;12.530;2023-07-31T10:46:14;19.80;99.90
1461;DHT22;724;49.910;12.530;2023-07-31T10:48:42;20.30;99.90
1461;DHT22;724;49.910;12.530;2023-07-31T10:51:11;19.50;99.90
1461;DHT22;724;49.910;12.530;2023-07-31T10:53:39;19.40;99.90
1461;DHT22;724;49.910;12.530;2023-07-31T10:56:08;19.30;99.90
1461;DHT22;724;49.910;12.530;2023-07-31T10:58:38;19.00;99.90
1461;DHT22;724;49.910;12.530;2023-07-31T11:01:06;19.20;99.90
1461;DHT22;724;49.910;12.530;2023-07-31T11:03:45;19.70;99.90
1461;DHT22;724;49.910;12.530;2023-07-31T11:06:14;19.40;99.90
1461;DHT22;724;49.910;12.530;2023-07-31T11:08:42;19.00;99.90
1461;DHT22;724;49.910;12.530;2023-07-31T11:11:11;18.50;99.90
1461;DHT22;724;49.910;12.530;2023-07-31T11:13:44;18.60;99.90
1461;DHT22;724;49.910;12.530;2023-07-31T11:16:12;18.40;99.90
1461;DHT22;724;49.910;12.530;2023-07-31T11:18:39;18.40;99.90
1461;DHT22;724;49.910;12.530;2023-07-31T11:21:08;18.50;99.90
1461;DHT22;724;49.910;12.530;2023-07-31T11:23:38;18.60;99.90
1461;DHT22;724;49.910;12.530;2023-07-31T11:26:05;19.00;99.90
1461;DHT22;724;49.910;12.530;2023-07-31T11:28:33;18.80;99.90
1461;DHT22;724;49.910;12.530;2023-07-31T11:31:00;18.80;99.90
1461;DHT22;724;49.910;12.530;2023-07-31T11:33:28;18.90;99.90
1461;DHT22;724;49.910;12.530;2023-07-31T11:35:54;19.10;99.90
1461;DHT22;724;49.910;12.530;2023-07-31T11:38:23;19.30;99.90
1461;DHT22;724;49.910;12.530;2023-07-31T11:40:51;19.00;99.90
1461;DHT22;724;49.910;12.530;2023-07-31T11:43:19;19.20;99.90
1461;DHT22;724;49.910;12.530;2023-07-31T11:45:47;19.50;99.90
1461;DHT22;724;49.910;12.530;2023-07-31T11:48:21;19.60;99.90
1461;DHT22;724;49.910;12.530;2023-07-31T11:50:49;20.10;99.90
1461;DHT22;724;49.910;12.530;2023-07-31T11:53:20;19.80;99.90
1461;DHT22;724;49.910;12.530;2023-07-31T11:55:49;19.90;99.90
1461;DHT22;724;49.910;12.530;2023-07-31T11:58:17;20.60;99.90
1461;DHT22;724;49.910;12.530;2023-07-31T12:00:45;20.30;99.90
1461;DHT22;724;49.910;12.530;2023-07-31T12:03:12;19.60;99.90
1461;DHT22;724;49.910;12.530;2023-07-31T12:05:39;19.50;99.90
1461;DHT22;724;49.910;12.530;2023-07-31T12:08:09;19.20;99.90
1461;DHT22;724;49.910;12.530;2023-07-31T12:10:37;19.10;99.90
1461;DHT22;724;49.910;12.530;2023-07-31T12:13:08;18.90;99.90
1461;DHT22;724;49.910;12.530;2023-07-31T12:15:40;19.00;99.90
1461;DHT22;724;49.910;12.530;2023-07-31T12:18:09;19.10;99.90
1461;DHT22;724;49.910;12.530;2023-07-31T12:20:41;19.20;99.90
1461;DHT22;724;49.910;12.530;2023-07-31T12:23:14;19.20;99.90
1461;DHT22;724;49.910;12.530;2023-07-31T12:25:41;19.50;99.90
1461;DHT22;724;49.910;12.530;2023-07-31T12:28:09;19.40;99.90
1461;DHT22;724;49.910;12.530;2023-07-31T12:30:38;19.00;99.90
1461;DHT22;724;49.910;12.530;2023-07-31T12:33:07;19.00;99.90
1461;DHT22;724;49.910;12.530;2023-07-31T12:35:40;19.40;99.90
1461;DHT22;724;49.910;12.530;2023-07-31T12:38:07;20.00;99.90
1461;DHT22;724;49.910;12.530;2023-07-31T12:40:37;20.20;99.90
1461;DHT22;724;49.910;12.530;2023-07-31T12:43:04;20.50;99.90
1461;DHT22;724;49.910;12.530;2023-07-31T12:45:32;20.10;99.90
1461;DHT22;724;49.910;12.530;2023-07-31T12:47:59;19.90;99.90
1461;DHT22;724;49.910;12.530;2023-07-31T12:50:26;20.10;99.90
1461;DHT22;724;49.910;12.530;2023-07-31T12:52:54;19.70;99.90
1461;DHT22;724;49.910;12.530;2023-07-31T12:55:21;19.40;99.90
1461;DHT22;724;49.910;12.530;2023-07-31T12:57:48;19.30;99.90
1461;DHT22;724;49.910;12.530;2023-07-31T13:00:15;19.40;99.90
1461;DHT22;724;49.910;12.530;2023-07-31T13:02:43;19.20;99.90
1461;DHT22;724;49.910;12.530;2023-07-31T13:05:10;18.80;99.90
1461;DHT22;724;49.910;12.530;2023-07-31T13:07:38;18.90;99.90
1461;DHT22;724;49.910;12.530;2023-07-31T13:10:06;18.90;99.90
1461;DHT22;724;49.910;12.530;2023-07-31T13:12:33;19.10;99.90
1461;DHT22;724;49.910;12.530;2023-07-31T13:15:00;19.10;99.90
1461;DHT22;724;49.910;12.530;2023-07-31T13:17:27;19.20;99.90
1461;DHT22;724;49.910;12.530;2023-07-31T13:19:55;18.90;99.90
1461;DHT22;724;49.910;12.530;2023-07-31T13:22:22;19.00;99.90
1461;DHT22;724;49.910;12.530;2023-07-31T13:24:49;19.00;99.90
1461;DHT22;724;49.910;12.530;2023-07-31T13:27:16;19.00;99.90
1461;DHT22;724;49.910;12.530;2023-07-31T13:29:45;19.00;99.90
1461;DHT22;724;49.910;12.530;2023-07-31T13:32:12;19.00;99.90
1461;DHT22;724;49.910;12.530;2023-07-31T13:34:38;19.10;99.90
1461;DHT22;724;49.910;12.530;2023-07-31T13:37:06;19.00;99.90
1461;DHT22;724;49.910;12.530;2023-07-31T13:39:34;19.30;99.90
1461;DHT22;724;49.910;12.530;2023-07-31T13:42:01;19.60;99.90
1461;DHT22;724;49.910;12.530;2023-07-31T13:44:28;19.90;99.90
1461;DHT22;724;49.910;12.530;2023-07-31T13:46:55;20.40;99.90
1461;DHT22;724;49.910;12.530;2023-07-31T13:49:22;21.00;99.90
1461;DHT22;724;49.910;12.530;2023-07-31T13:51:49;21.60;99.90
1461;DHT22;724;49.910;12.530;2023-07-31T13:54:18;21.10;99.90
1461;DHT22;724;49.910;12.530;2023-07-31T13:56:45;20.80;99.90
1461;DHT22;724;49.910;12.530;2023-07-31T13:59:11;20.50;99.90
1461;DHT22;724;49.910;12.530;2023-07-31T14:01:40;20.20;99.90
1461;DHT22;724;49.910;12.530;2023-07-31T14:04:07;19.80;99.90
1461;DHT22;724;49.910;12.530;2023-07-31T14:06:33;20.00;99.90
1461;DHT22;724;49.910;12.530;2023-07-31T14:09:00;20.10;99.90
1461;DHT22;724;49.910;12.530;2023-07-31T14:11:31;19.80;99.90
1461;DHT22;724;49.910;12.530;2023-07-31T14:13:58;19.50;99.90
1461;DHT22;724;49.910;12.530;2023-07-31T14:16:25;19.40;99.90
1461;DHT22;724;49.910;12.530;2023-07-31T14:18:51;19.50;99.90
1461;DHT22;724;49.910;12.530;2023-07-31T14:21:19;19.50;99.90
1461;DHT22;724;49.910;12.530;2023-07-31T14:23:46;19.60;99.90
1461;DHT22;724;49.910;12.530;2023-07-31T14:26:12;19.90;99.90
1461;DHT22;724;49.910;12.530;2023-07-31T14:28:40;20.20;99.90
1461;DHT22;724;49.910;12.530;2023-07-31T14:31:07;20.10;99.90
1461;DHT22;724;49.910;12.530;2023-07-31T14:33:34;20.50;99.90
1461;DHT22;724;49.910;12.530;2023-07-31T14:36:01;20.40;99.90
1461;DHT22;724;49.910;12.530;2023-07-31T14:38:28;20.30;99.90
1461;DHT22;724;49.910;12.530;2023-07-31T14:40:55;20.10;99.90
1461;DHT22;724;49.910;12.530;2023-07-31T14:43:22;19.90;99.90
1461;DHT22;724;49.910;12.530;2023-07-31T14:45:50;20.00;99.90
1461;DHT22;724;49.910;12.530;2023-07-31T14:48:18;20.40;99.90
1461;DHT22;724;49.910;12.530;2023-07-31T14:50:45;20.60;99.90
1461;DHT22;724;49.910;12.530;2023-07-31T14:53:12;20.70;99.90
1461;DHT22;724;49.910;12.530;2023-07-31T14:55:39;21.20;99.90
1461;DHT22;724;49.910;12.530;2023-07-31T14:58:06;21.60;99.90
1461;DHT22;724;49.910;12.530;2023-07-31T15:00:32;21.10;99.90
1461;DHT22;724;49.910;12.530;2023-07-31T15:03:02;20.70;99.90
1461;DHT22;724;49.910;12.530;2023-07-31T15:05:28;20.60;99.90
1461;DHT22;724;49.910;12.530;2023-07-31T15:07:55;20.40;99.90
1461;DHT22;724;49.910;12.530;2023-07-31T15:10:22;20.40;99.90
1461;DHT22;724;49.910;12.530;2023-07-31T15:12:49;20.10;99.90
1461;DHT22;724;49.910;12.530;2023-07-31T15:15:16;20.20;99.90
1461;DHT22;724;49.910;12.530;2023-07-31T15:17:43;20.10;99.90
1461;DHT22;724;49.910;12.530;2023-07-31T15:20:11;19.90;99.90
1461;DHT22;724;49.910;12.530;2023-07-31T15:22:38;19.60;99.90
1461;DHT22;724;49.910;12.530;2023-07-31T15:25:06;19.70;99.90
1461;DHT22;724;49.910;12.530;2023-07-31T15:27:33;19.80;99.90
1461;DHT22;724;49.910;12.530;2023-07-31T15:30:00;19.80;99.90
1461;DHT22;724;49.910;12.530;2023-07-31T15:32:28;19.70;99.90
1461;DHT22;724;49.910;12.530;2023-07-31T15:34:55;19.60;99.90
1461;DHT22;724;49.910;12.530;2023-07-31T15:37:23;19.80;99.90
1461;DHT22;724;49.910;12.530;2023-07-31T15:39:50;19.80;99.90
1461;DHT22;724;49.910;12.530;2023-07-31T15:42:17;19.70;99.90
1461;DHT22;724;49.910;12.530;2023-07-31T15:44:43;19.60;99.90
1461;DHT22;724;49.910;12.530;2023-07-31T15:47:10;19.60;99.90
1461;DHT22;724;49.910;12.530;2023-07-31T15:49:37;19.50;99.90
1461;DHT22;724;49.910;12.530;2023-07-31T15:52:05;19.30;99.90
1461;DHT22;724;49.910;12.530;2023-07-31T15:54:34;19.30;99.90
1461;DHT22;724;49.910;12.530;2023-07-31T15:57:01;19.20;99.90
1461;DHT22;724;49.910;12.530;2023-07-31T15:59:27;19.20;99.90
1461;DHT22;724;49.910;12.530;2023-07-31T16:01:54;19.20;99.90
1461;DHT22;724;49.910;12.530;2023-07-31T16:04:21;19.20;99.90
1461;DHT22;724;49.910;12.530;2023-07-31T16:06:48;19.20;99.90
1461;DHT22;724;49.910;12.530;2023-07-31T16:09:15;19.20;99.90
1461;DHT22;724;49.910;12.530;2023-07-31T16:11:44;19.20;99.90